首页
METAR-TAF:

METAR-TAF

机场 :

Wiarton, 安大略省, 加拿大

纬度: 44-45N, 经度: 081-06W, 海拔: 222米

当前天气观测

该预报发布于1小时和7分钟前的23:00 UTC
风速6节,风向西
温度 21°C
湿度 53%
气压 1020 hPa
能見度: 24.1公里
少量云层高于2000英尺
少量云层高于25000英尺

METAR: CYVV 062300Z 27006KT 15SM FEW020 FEW250 21/11 A3012 RMK CU1CI2 CU TR CONTRAILS SLP202 DENSITY ALT 1400FT

时间: 20:07 (00:07 UTC)

预报

该预报发布于4小时和29分钟前的19:38 UTC
预报有效从06日的 20点(UTC)到 06日的 23点(UTC)
风速8节,风向西
能見度: 10公里
少量云层高于2000英尺

TAF: CYVV 061938Z 0620/0623 28008KT P6SM FEW020 RMK NXT FCST WILL BE ISSUED AT 071045Z

超过4000个机场的气象观测和天气预报(METAR&TAF报告)。

可查询的气象台以黄色和红色小点在地图上表示。

将鼠标移到小点上方,可查看气象台名称。

然后点击查看天气观测和预报。

如需切换地图:点击带黑十字的绿色按钮放大地图;点击带横线的绿色按钮缩小地图;或者点击绿色箭头查看邻近地区的地图。


METAR-TAF: